createdAt,value
2018-06-24T00:00:35.443Z,38.91
2018-06-24T00:03:07.781Z,40.07
2018-06-24T00:05:41.064Z,40.52
2018-06-24T00:08:14.721Z,40.05
2018-06-24T00:10:46.152Z,39.83
2018-06-24T00:13:22.614Z,39.85
2018-06-24T00:15:55.122Z,39.19
2018-06-24T00:18:27.719Z,40.11
2018-06-24T00:20:59.569Z,39.40
2018-06-24T00:23:31.312Z,39.90
2018-06-24T00:26:02.980Z,39.83
2018-06-24T00:28:34.559Z,40.33
2018-06-24T00:31:07.727Z,40.92
2018-06-24T00:33:40.194Z,40.92
2018-06-24T00:36:12.010Z,40.52
2018-06-24T00:38:43.595Z,40.83
2018-06-24T00:41:16.748Z,40.74
2018-06-24T00:43:48.115Z,40.69
2018-06-24T00:46:20.277Z,39.61
2018-06-24T00:48:54.368Z,40.46
2018-06-24T00:51:29.688Z,39.33
2018-06-24T00:54:02.070Z,40.23
2018-06-24T00:56:35.786Z,39.95
2018-06-24T00:59:07.132Z,39.74
2018-06-24T01:01:40.238Z,40.02
2018-06-24T01:04:12.618Z,40.25
2018-06-24T01:06:46.391Z,40.31
2018-06-24T01:09:17.912Z,39.27
2018-06-24T01:11:51.510Z,39.40
2018-06-24T01:14:23.095Z,39.72
2018-06-24T01:17:01.231Z,39.48
2018-06-24T01:19:44.850Z,39.80
2018-06-24T01:22:17.224Z,39.52
2018-06-24T01:24:51.443Z,40.01
2018-06-24T01:27:23.566Z,40.97
2018-06-24T01:29:57.063Z,42.25
2018-06-24T01:32:31.993Z,43.04
2018-06-24T01:35:04.210Z,42.69
2018-06-24T01:37:36.084Z,42.56
2018-06-24T01:40:08.631Z,42.44
2018-06-24T01:42:43.822Z,42.94
2018-06-24T01:45:16.172Z,42.22
2018-06-24T01:47:50.170Z,42.88
2018-06-24T01:50:23.202Z,42.42
2018-06-24T01:52:55.244Z,42.71
2018-06-24T01:55:28.533Z,42.84
2018-06-24T01:58:04.507Z,42.52
2018-06-24T02:00:38.444Z,42.17
2018-06-24T02:03:12.859Z,41.35
2018-06-24T02:05:44.584Z,41.44
2018-06-24T02:08:17.071Z,41.29
2018-06-24T02:10:48.463Z,42.56
2018-06-24T02:13:19.907Z,42.81
2018-06-24T02:15:52.370Z,43.34
2018-06-24T02:18:24.757Z,42.30
2018-06-24T02:20:59.112Z,42.01
2018-06-24T02:23:30.724Z,42.48
2018-06-24T02:26:02.163Z,42.50
2018-06-24T02:28:33.659Z,42.97
2018-06-24T02:31:05.076Z,42.26
2018-06-24T02:33:37.731Z,42.51
2018-06-24T02:36:09.244Z,41.85
2018-06-24T02:38:46.886Z,41.95
2018-06-24T02:41:33.046Z,41.64
2018-06-24T02:44:17.706Z,41.72
2018-06-24T02:47:06.752Z,42.09
2018-06-24T02:49:39.595Z,41.59
2018-06-24T02:52:12.071Z,41.86
2018-06-24T02:54:46.647Z,41.64
2018-06-24T02:57:18.407Z,41.04
2018-06-24T02:59:53.079Z,41.03
2018-06-24T03:02:30.152Z,41.42
2018-06-24T03:05:07.448Z,40.88
2018-06-24T03:07:41.560Z,41.55
2018-06-24T03:12:47.663Z,41.30
2018-06-24T03:15:20.201Z,41.36
2018-06-24T03:17:53.277Z,40.76
2018-06-24T03:20:29.318Z,41.53
2018-06-24T03:23:01.776Z,40.96
2018-06-24T03:25:33.456Z,41.59
2018-06-24T03:28:06.544Z,41.74
2018-06-24T03:30:40.625Z,41.75
2018-06-24T03:33:14.023Z,41.89
2018-06-24T03:35:46.622Z,41.48
2018-06-24T03:38:20.770Z,41.16
2018-06-24T03:40:52.255Z,41.02
2018-06-24T03:43:29.832Z,42.00
2018-06-24T03:46:05.437Z,42.45
2018-06-24T03:48:38.085Z,41.60
2018-06-24T03:51:16.753Z,42.23
2018-06-24T03:53:51.144Z,41.93
2018-06-24T03:56:23.486Z,42.49
2018-06-24T03:58:55.871Z,42.60
2018-06-24T04:01:33.620Z,42.43
2018-06-24T04:04:10.760Z,42.63
2018-06-24T04:06:43.960Z,42.41
2018-06-24T04:09:16.311Z,42.69
2018-06-24T04:11:48.864Z,42.42
2018-06-24T04:14:24.893Z,42.92
2018-06-24T04:16:56.364Z,43.58
2018-06-24T04:19:30.218Z,43.44
2018-06-24T04:22:02.951Z,43.61
2018-06-24T04:24:34.482Z,43.51
2018-06-24T04:27:06.029Z,43.21
2018-06-24T04:29:38.605Z,43.38
2018-06-24T04:32:10.063Z,42.97
2018-06-24T04:34:41.514Z,42.22
2018-06-24T04:37:12.924Z,41.23
2018-06-24T04:39:45.251Z,39.74
2018-06-24T04:42:17.791Z,38.87
2018-06-24T04:44:49.931Z,38.13
2018-06-24T04:47:21.505Z,38.28
2018-06-24T04:49:53.594Z,36.22
2018-06-24T04:52:25.006Z,35.33
2018-06-24T04:54:56.797Z,35.15
2018-06-24T04:57:29.237Z,35.70
2018-06-24T05:00:04.493Z,36.14
2018-06-24T05:02:37.665Z,36.23
2018-06-24T05:05:13.314Z,37.60
2018-06-24T05:07:44.715Z,37.62
2018-06-24T05:10:16.148Z,37.18
2018-06-24T05:12:48.004Z,36.44
2018-06-24T05:15:19.766Z,36.54
2018-06-24T05:17:51.148Z,35.40
2018-06-24T05:20:22.720Z,34.83
2018-06-24T05:22:54.355Z,35.38
2018-06-24T05:25:25.864Z,35.83
2018-06-24T05:27:57.324Z,35.72
2018-06-24T05:30:30.445Z,34.78
2018-06-24T05:33:07.782Z,33.72
2018-06-24T05:35:42.196Z,32.24
2018-06-24T05:38:14.960Z,32.26
2018-06-24T05:40:47.115Z,31.75
2018-06-24T05:43:19.246Z,30.79
2018-06-24T05:45:53.191Z,29.61
2018-06-24T05:48:25.416Z,30.24
2018-06-24T05:50:57.373Z,30.46
2018-06-24T05:53:28.871Z,31.01
2018-06-24T05:56:01.737Z,30.77
2018-06-24T05:58:32.958Z,30.18
2018-06-24T06:01:04.500Z,29.42
2018-06-24T06:03:36.820Z,28.89
2018-06-24T06:06:08.383Z,28.92
2018-06-24T06:08:43.386Z,29.34
2018-06-24T06:11:15.094Z,29.49
2018-06-24T06:13:47.628Z,30.26
2018-06-24T06:16:19.607Z,31.29
2018-06-24T06:18:52.212Z,30.91
2018-06-24T06:21:25.561Z,30.86
2018-06-24T06:24:00.283Z,30.85
2018-06-24T06:26:33.697Z,30.71
2018-06-24T06:29:07.700Z,30.38
2018-06-24T06:31:40.017Z,31.02
2018-06-24T06:34:11.402Z,30.68
2018-06-24T06:36:46.060Z,29.93
2018-06-24T06:39:17.491Z,29.52
2018-06-24T06:41:49.953Z,29.79
2018-06-24T06:44:21.601Z,30.04
2018-06-24T06:46:53.605Z,29.64
2018-06-24T06:49:27.559Z,29.17
2018-06-24T06:52:01.456Z,30.26
2018-06-24T06:54:33.066Z,29.59
2018-06-24T06:57:05.808Z,29.91
2018-06-24T06:59:40.360Z,31.40
2018-06-24T07:02:12.091Z,31.10
2018-06-24T07:04:45.473Z,30.46
2018-06-24T07:07:17.877Z,30.89
2018-06-24T07:09:51.580Z,31.37
2018-06-24T07:12:23.173Z,31.20
2018-06-24T07:14:56.022Z,30.26
2018-06-24T07:17:28.874Z,30.77
2018-06-24T07:20:03.023Z,31.52
2018-06-24T07:22:40.139Z,30.80
2018-06-24T07:25:12.248Z,30.83
2018-06-24T07:27:45.692Z,31.50
2018-06-24T07:30:17.484Z,31.43
2018-06-24T07:32:50.440Z,31.66
2018-06-24T07:35:24.258Z,31.44
2018-06-24T07:38:05.984Z,30.82
2018-06-24T07:40:40.084Z,31.24
2018-06-24T07:43:19.011Z,31.20
2018-06-24T07:45:50.806Z,31.47
2018-06-24T07:48:22.239Z,31.89
2018-06-24T07:50:58.391Z,31.25
2018-06-24T07:53:32.236Z,31.67
2018-06-24T07:56:04.600Z,31.43
2018-06-24T07:58:39.560Z,30.72
2018-06-24T08:01:14.410Z,31.02
2018-06-24T08:03:46.924Z,30.39
2018-06-24T08:06:20.434Z,29.96
2018-06-24T08:09:05.237Z,30.37
2018-06-24T08:11:42.439Z,30.42
2018-06-24T08:14:13.236Z,30.83
2018-06-24T08:16:47.236Z,31.04
2018-06-24T08:19:17.868Z,31.35
2018-06-24T08:21:48.612Z,31.27
2018-06-24T08:24:19.567Z,30.08
2018-06-24T08:26:52.215Z,29.86
2018-06-24T08:29:23.012Z,30.07
2018-06-24T08:31:54.623Z,31.05
2018-06-24T08:34:25.480Z,30.65
2018-06-24T08:36:58.564Z,31.33
2018-06-24T08:39:29.568Z,31.16
2018-06-24T08:42:00.197Z,30.97
2018-06-24T08:44:36.265Z,30.73
2018-06-24T08:47:10.612Z,29.27
2018-06-24T08:49:45.259Z,29.07
2018-06-24T08:52:18.344Z,28.42
2018-06-24T08:54:53.252Z,27.37
2018-06-24T08:57:30.565Z,26.91
2018-06-24T09:00:09.214Z,25.24
2018-06-24T09:03:00.498Z,25.40
2018-06-24T09:08:37.482Z,25.59
2018-06-24T09:11:13.617Z,25.97
2018-06-24T09:13:51.008Z,25.90
2018-06-24T09:20:33.741Z,26.94
2018-06-24T09:23:07.400Z,26.56
2018-06-24T09:25:49.464Z,26.99
2018-06-24T09:29:16.408Z,26.79
2018-06-24T09:32:07.801Z,27.02
2018-06-24T09:34:55.538Z,27.08
2018-06-24T09:37:48.888Z,25.86
2018-06-24T09:40:25.249Z,26.58
2018-06-24T09:43:01.923Z,25.48
2018-06-24T09:45:37.298Z,25.13
2018-06-24T09:48:11.820Z,24.44
2018-06-24T09:50:46.287Z,24.49
2018-06-24T09:53:21.898Z,25.04
2018-06-24T09:55:57.214Z,24.88
2018-06-24T09:58:29.997Z,24.37
2018-06-24T10:01:01.927Z,24.45
2018-06-24T10:03:33.916Z,24.11
2018-06-24T10:06:04.547Z,23.62
2018-06-24T10:08:37.275Z,23.54
2018-06-24T10:11:11.065Z,23.33
2018-06-24T10:13:44.286Z,24.02
2018-06-24T10:16:18.433Z,22.80
2018-06-24T10:21:39.823Z,22.74
2018-06-24T10:24:16.473Z,22.63
2018-06-24T10:26:50.034Z,23.31
2018-06-24T10:29:26.348Z,23.28
2018-06-24T10:32:01.298Z,22.93
2018-06-24T10:34:33.520Z,23.57
2018-06-24T10:39:18.472Z,23.78
2018-06-24T10:41:50.905Z,25.99
2018-06-24T10:44:25.911Z,26.61
2018-06-24T10:47:05.742Z,27.89
2018-06-24T10:49:40.529Z,28.06
2018-06-24T10:52:18.591Z,28.15
2018-06-24T10:54:55.993Z,28.27
2018-06-24T10:57:38.286Z,27.41
2018-06-24T11:00:23.554Z,27.70
2018-06-24T11:03:14.269Z,26.74
2018-06-24T11:05:49.461Z,25.71
2018-06-24T11:11:15.597Z,22.84
2018-06-24T11:16:48.220Z,22.33
2018-06-24T11:19:29.867Z,22.26
2018-06-24T11:22:04.486Z,22.38
2018-06-24T11:24:37.276Z,22.34
2018-06-24T11:27:09.860Z,23.02
2018-06-24T11:29:40.447Z,22.89
2018-06-24T11:32:13.141Z,23.31
2018-06-24T11:34:43.747Z,21.80
2018-06-24T11:37:16.139Z,22.40
2018-06-24T11:39:48.626Z,21.65
2018-06-24T11:42:21.838Z,22.07
2018-06-24T11:44:57.838Z,22.11
2018-06-24T11:47:32.002Z,22.79
2018-06-24T11:50:03.363Z,22.82
2018-06-24T11:52:34.440Z,23.19
2018-06-24T11:55:09.280Z,24.01
2018-06-24T11:57:50.017Z,22.45
2018-06-24T12:00:22.176Z,22.14
2018-06-24T12:02:56.071Z,22.68
2018-06-24T12:05:27.459Z,22.42
2018-06-24T12:08:00.591Z,21.83
2018-06-24T12:10:35.697Z,22.00
2018-06-24T12:13:12.808Z,21.39
2018-06-24T12:15:44.662Z,21.10
2018-06-24T12:18:17.070Z,21.00
2018-06-24T12:20:58.414Z,20.04
2018-06-24T12:23:30.710Z,19.20
2018-06-24T12:26:03.424Z,18.84
2018-06-24T12:28:39.451Z,17.96
2018-06-24T12:31:11.749Z,17.84
2018-06-24T12:33:45.376Z,18.88
2018-06-24T12:36:18.539Z,20.03
2018-06-24T12:38:55.606Z,20.62
2018-06-24T12:41:29.897Z,19.93
2018-06-24T12:44:04.425Z,19.45
2018-06-24T12:46:38.036Z,19.53
2018-06-24T12:49:10.423Z,19.87
2018-06-24T12:51:46.393Z,19.79
2018-06-24T12:54:22.316Z,18.28
2018-06-24T12:56:55.064Z,19.20
2018-06-24T12:59:34.559Z,19.71
2018-06-24T13:02:13.292Z,20.20
2018-06-24T13:04:45.186Z,20.39
2018-06-24T13:07:17.352Z,20.23
2018-06-24T13:09:50.405Z,20.03
2018-06-24T13:12:22.844Z,20.55
2018-06-24T13:14:56.387Z,19.44
2018-06-24T13:17:28.559Z,19.53
2018-06-24T13:20:03.099Z,19.21
2018-06-24T13:22:35.835Z,19.50
2018-06-24T13:25:07.221Z,18.59
2018-06-24T13:27:45.200Z,18.22
2018-06-24T13:30:17.061Z,18.41
2018-06-24T13:32:51.119Z,18.02
2018-06-24T13:35:26.792Z,17.94
2018-06-24T13:37:57.624Z,18.61
2018-06-24T13:40:28.727Z,18.22
2018-06-24T13:43:03.275Z,18.83
2018-06-24T13:45:36.485Z,18.34
2018-06-24T13:48:10.502Z,18.23
2018-06-24T13:50:44.375Z,19.19
2018-06-24T13:53:19.290Z,18.80
2018-06-24T13:55:52.080Z,19.32
2018-06-24T13:58:23.880Z,20.11
2018-06-24T14:00:55.829Z,20.06
2018-06-24T14:03:31.237Z,19.31
2018-06-24T14:06:03.341Z,19.51
2018-06-24T14:08:35.532Z,20.20
2018-06-24T14:11:09.478Z,20.37
2018-06-24T14:13:40.465Z,21.15
2018-06-24T14:16:11.151Z,21.29
2018-06-24T14:18:43.914Z,21.27
2018-06-24T14:21:19.624Z,21.72
2018-06-24T14:23:52.189Z,21.96
2018-06-24T14:26:29.275Z,21.37
2018-06-24T14:29:03.432Z,21.15
2018-06-24T14:31:37.062Z,21.01
2018-06-24T14:34:09.976Z,20.67
2018-06-24T14:36:45.054Z,21.03
2018-06-24T14:39:23.136Z,20.21
2018-06-24T14:41:53.701Z,20.38
2018-06-24T14:44:34.714Z,20.73
2018-06-24T14:47:08.632Z,20.42
2018-06-24T14:49:43.852Z,19.67
2018-06-24T14:52:18.870Z,19.50
2018-06-24T14:54:52.086Z,20.65
2018-06-24T14:57:23.780Z,20.31
2018-06-24T15:00:00.713Z,20.52
2018-06-24T15:02:36.326Z,21.19
2018-06-24T15:05:10.600Z,20.57
2018-06-24T15:07:43.704Z,21.52
2018-06-24T15:10:16.153Z,22.01
2018-06-24T15:12:47.568Z,22.17
2018-06-24T15:15:19.372Z,21.86
2018-06-24T15:17:51.830Z,21.39
2018-06-24T15:20:26.211Z,21.35
2018-06-24T15:22:58.032Z,21.44
2018-06-24T15:25:30.310Z,20.71
2018-06-24T15:28:02.081Z,20.82
2018-06-24T15:30:38.192Z,19.47
2018-06-24T15:33:17.443Z,19.85
2018-06-24T15:35:51.413Z,20.74
2018-06-24T15:38:34.252Z,21.50
2018-06-24T15:41:19.775Z,21.55
2018-06-24T15:44:15.417Z,21.81
2018-06-24T15:46:49.895Z,22.78
2018-06-24T15:49:25.199Z,22.95
2018-06-24T15:52:02.627Z,23.84
2018-06-24T15:54:37.598Z,23.47
2018-06-24T15:57:10.377Z,24.34
2018-06-24T15:59:45.454Z,24.67
2018-06-24T16:02:18.390Z,24.89
2018-06-24T16:04:59.295Z,24.71
2018-06-24T16:07:49.245Z,24.37
2018-06-24T16:10:34.323Z,24.51
2018-06-24T16:13:35.674Z,24.70
2018-06-24T16:16:12.466Z,25.62
2018-06-24T16:21:28.779Z,25.33
2018-06-24T16:24:03.661Z,25.74
2018-06-24T16:26:40.874Z,26.41
2018-06-24T16:29:14.440Z,26.18
2018-06-24T16:31:47.700Z,25.75
2018-06-24T16:34:22.323Z,25.92
2018-06-24T16:36:58.108Z,26.19
2018-06-24T16:39:30.937Z,26.72
2018-06-24T16:42:05.395Z,26.86
2018-06-24T16:44:42.255Z,26.68
2018-06-24T16:47:23.410Z,26.55
2018-06-24T16:50:03.612Z,27.55
2018-06-24T16:52:44.776Z,27.54
2018-06-24T16:55:29.297Z,27.18
2018-06-24T16:58:03.357Z,26.74
2018-06-24T17:00:49.806Z,27.31
2018-06-24T17:03:36.307Z,26.83
2018-06-24T17:06:49.652Z,27.51
2018-06-24T17:09:44.160Z,27.22
2018-06-24T17:12:32.081Z,27.99
2018-06-24T17:15:14.594Z,27.42
2018-06-24T17:17:52.200Z,28.23
2018-06-24T17:20:28.250Z,28.23
2018-06-24T17:23:13.906Z,28.14
2018-06-24T17:26:09.649Z,27.83
2018-06-24T17:31:47.849Z,28.19
2018-06-24T17:34:26.017Z,28.58
2018-06-24T17:37:05.963Z,28.03
2018-06-24T17:39:42.706Z,28.22
2018-06-24T17:42:22.364Z,28.35
2018-06-24T17:45:06.221Z,27.73
2018-06-24T17:47:41.343Z,28.24
2018-06-24T17:50:25.916Z,28.68
2018-06-24T17:52:59.571Z,28.31
2018-06-24T17:55:33.829Z,29.14
2018-06-24T17:58:18.176Z,28.79
2018-06-24T18:01:05.192Z,29.36
2018-06-24T18:03:40.454Z,29.75
2018-06-24T18:06:12.347Z,29.89
2018-06-24T18:08:47.773Z,29.85
2018-06-24T18:11:21.160Z,29.37
2018-06-24T18:13:59.604Z,30.21
2018-06-24T18:20:12.102Z,30.12
2018-06-24T18:22:47.398Z,30.11
2018-06-24T18:25:37.596Z,30.30
2018-06-24T18:28:24.300Z,30.59
2018-06-24T18:30:57.799Z,30.23
2018-06-24T18:33:46.979Z,30.77
2018-06-24T18:36:27.553Z,30.43
2018-06-24T18:41:53.928Z,30.80
2018-06-24T18:44:30.548Z,31.31
2018-06-24T18:47:06.225Z,31.15
2018-06-24T18:49:42.539Z,31.84
2018-06-24T18:52:16.475Z,32.05
2018-06-24T18:55:07.061Z,31.57
2018-06-24T18:57:44.322Z,31.73
2018-06-24T19:00:32.956Z,31.36
2018-06-24T19:03:24.538Z,32.05
2018-06-24T19:06:13.244Z,31.91
2018-06-24T19:08:54.217Z,31.93
2018-06-24T19:11:51.369Z,32.32
2018-06-24T19:14:30.478Z,31.76
2018-06-24T19:17:04.819Z,31.99
2018-06-24T19:19:52.953Z,32.33
2018-06-24T19:25:41.801Z,33.18
2018-06-24T19:28:30.518Z,32.50
2018-06-24T19:34:26.465Z,32.99
2018-06-24T19:37:15.813Z,32.93
2018-06-24T19:41:21.960Z,33.30
2018-06-24T19:43:58.260Z,33.27
2018-06-24T19:46:34.194Z,33.89
2018-06-24T19:51:53.524Z,33.99
2018-06-24T19:54:26.269Z,34.01
2018-06-24T19:57:00.280Z,34.32
2018-06-24T19:59:34.454Z,34.26
2018-06-24T20:02:06.435Z,34.30
2018-06-24T20:04:40.834Z,35.12
2018-06-24T20:07:15.684Z,34.56
2018-06-24T20:10:19.250Z,34.47
2018-06-24T20:12:57.937Z,35.40
2018-06-24T20:15:35.115Z,35.06
2018-06-24T20:18:10.594Z,34.86
2018-06-24T20:20:43.761Z,34.75
2018-06-24T20:23:21.563Z,35.08
2018-06-24T20:25:56.620Z,35.16
2018-06-24T20:28:31.968Z,35.20
2018-06-24T20:31:24.003Z,35.13
2018-06-24T20:34:05.071Z,35.47
2018-06-24T20:37:37.708Z,35.67
2018-06-24T20:40:27.313Z,35.49
2018-06-24T20:43:31.441Z,35.02
2018-06-24T20:53:03.223Z,35.72
2018-06-24T20:55:49.431Z,35.80
2018-06-24T20:58:33.293Z,35.35
2018-06-24T21:01:12.748Z,35.56
2018-06-24T21:03:51.189Z,35.41
2018-06-24T21:06:27.741Z,35.62
2018-06-24T21:09:06.564Z,36.08
2018-06-24T21:11:45.429Z,35.23
2018-06-24T21:14:29.188Z,35.88
2018-06-24T21:20:15.336Z,35.69
2018-06-24T21:23:38.696Z,36.09
2018-06-24T21:26:21.679Z,36.08
2018-06-24T21:29:26.798Z,36.18
2018-06-24T21:32:20.390Z,36.49
2018-06-24T21:34:59.262Z,36.58
2018-06-24T21:38:07.135Z,36.04
2018-06-24T21:41:01.566Z,37.06
2018-06-24T21:47:55.323Z,36.80
2018-06-24T21:51:03.078Z,36.95
2018-06-24T21:53:50.796Z,37.70
2018-06-24T21:56:25.856Z,38.06
2018-06-24T21:59:06.291Z,37.62
2018-06-24T22:02:03.488Z,37.36
2018-06-24T22:04:37.319Z,37.60
2018-06-24T22:10:51.351Z,37.15
2018-06-24T22:13:31.135Z,37.47
2018-06-24T22:16:13.464Z,37.55
2018-06-24T22:18:53.971Z,37.90
2018-06-24T22:21:34.726Z,37.62
2018-06-24T22:24:15.081Z,37.47
2018-06-24T22:29:36.004Z,37.10
2018-06-24T22:32:13.554Z,36.94
2018-06-24T22:34:46.430Z,36.53
2018-06-24T22:37:20.220Z,37.11
2018-06-24T22:39:56.288Z,36.24
2018-06-24T22:42:30.522Z,36.87
2018-06-24T22:45:06.152Z,37.45
2018-06-24T22:47:45.225Z,37.56
2018-06-24T22:50:17.666Z,36.56
2018-06-24T22:52:50.537Z,37.36
2018-06-24T22:55:25.249Z,37.30
2018-06-24T22:57:58.521Z,36.98
2018-06-24T23:00:30.342Z,37.84
2018-06-24T23:03:04.206Z,37.47
2018-06-24T23:05:37.431Z,37.36
2018-06-24T23:08:13.268Z,37.98
2018-06-24T23:10:46.129Z,38.91
2018-06-24T23:13:19.045Z,38.37
2018-06-24T23:15:53.163Z,38.26
2018-06-24T23:18:25.241Z,38.34
2018-06-24T23:20:56.731Z,38.33
2018-06-24T23:23:37.338Z,38.82
2018-06-24T23:26:13.243Z,38.97
2018-06-24T23:28:48.053Z,38.85
2018-06-24T23:31:23.914Z,39.21
2018-06-24T23:33:58.141Z,39.38
2018-06-24T23:36:29.920Z,39.71
2018-06-24T23:39:04.089Z,39.01
2018-06-24T23:41:41.491Z,39.57
2018-06-24T23:44:17.720Z,39.32
2018-06-24T23:46:57.430Z,40.34
2018-06-24T23:50:38.186Z,39.84
2018-06-24T23:53:13.833Z,40.20
2018-06-24T23:55:47.636Z,40.00
2018-06-24T23:58:24.062Z,40.22
